Terminal Aerodrome Forecast
Issued by NWS

Home | Current Version | Previous Version | Text Only | Print | Product List | Glossary On
Versions: 1 2 3 4 5 6 7 8 9 10 11 12 13 14 15 16 17 18 19 20 21
000
FTUS46 KMTR 312300
TAFSNS
TAF
KSNS 312334Z 0100/0124 27006KT P6SM SKC
     FM010400 12005KT P6SM SKC
      TEMPO 0113/0116 BKN008
     FM012100 28008KT P6SM FEW200=

USA.gov is the U.S. government's official web portal to all federal, state and local government web resources and services.